Terminal Aerodrome Forecast
Issued by NWS

Home | Current Version | Previous Version | Text Only | Print | Product List | Glossary On
Versions: 1 2 3 4 5 6 7 8 9 10 11 12 13 14 15 16 17 18 19 20 21 22 23 24 25 26 27 28 29 30 31 32 33 34 35 36 37 38 39 40 41 42 43 44 45 46 47 48 49 50
000
FTUS43 KDMX 240536
TAFMCW
TAF
KMCW 240536Z 2406/2506 31023G33KT 4SM -SN SCT010 OVC020
      TEMPO 2406/2408 2SM -SN BR SCT007 BKN012 OVC020
     FM241200 32025G36KT 6SM -SN BKN015 OVC022
     FM242000 32020G28KT P6SM SCT022 BKN028=

USA.gov is the U.S. government's official web portal to all federal, state and local government web resources and services.